sensor_id;sensor_type;location;lat;lon;timestamp;temperature;humidity
15926;DHT22;8062;53.882;10.642;2022-08-07T00:00:10;9.40;99.90
15926;DHT22;8062;53.882;10.642;2022-08-07T00:01:13;9.40;99.90
15926;DHT22;8062;53.882;10.642;2022-08-07T00:02:14;9.40;99.90
15926;DHT22;8062;53.882;10.642;2022-08-07T00:03:15;9.40;99.90
15926;DHT22;8062;53.882;10.642;2022-08-07T00:04:16;9.40;99.90
15926;DHT22;8062;53.882;10.642;2022-08-07T00:05:17;9.30;99.90
15926;DHT22;8062;53.882;10.642;2022-08-07T00:06:18;9.30;99.90
15926;DHT22;8062;53.882;10.642;2022-08-07T00:07:19;9.30;99.90
15926;DHT22;8062;53.882;10.642;2022-08-07T00:08:20;9.30;99.90
15926;DHT22;8062;53.882;10.642;2022-08-07T00:09:22;9.30;99.90
15926;DHT22;8062;53.882;10.642;2022-08-07T00:10:23;9.20;99.90
15926;DHT22;8062;53.882;10.642;2022-08-07T00:11:24;9.20;99.90
15926;DHT22;8062;53.882;10.642;2022-08-07T00:12:25;9.20;99.90
15926;DHT22;8062;53.882;10.642;2022-08-07T00:13:26;9.20;99.90
15926;DHT22;8062;53.882;10.642;2022-08-07T00:14:27;9.20;99.90
15926;DHT22;8062;53.882;10.642;2022-08-07T00:15:31;9.20;99.90
15926;DHT22;8062;53.882;10.642;2022-08-07T00:16:32;9.20;99.90
15926;DHT22;8062;53.882;10.642;2022-08-07T00:17:33;9.10;99.90
15926;DHT22;8062;53.882;10.642;2022-08-07T00:18:34;9.10;99.90
15926;DHT22;8062;53.882;10.642;2022-08-07T00:19:35;9.10;99.90
15926;DHT22;8062;53.882;10.642;2022-08-07T00:20:37;9.10;99.90
15926;DHT22;8062;53.882;10.642;2022-08-07T00:21:38;9.10;99.90
15926;DHT22;8062;53.882;10.642;2022-08-07T00:22:39;9.00;99.90
15926;DHT22;8062;53.882;10.642;2022-08-07T00:23:41;9.10;99.90
15926;DHT22;8062;53.882;10.642;2022-08-07T00:24:42;9.00;99.90
15926;DHT22;8062;53.882;10.642;2022-08-07T00:25:43;9.10;99.90
15926;DHT22;8062;53.882;10.642;2022-08-07T00:26:44;9.00;99.90
15926;DHT22;8062;53.882;10.642;2022-08-07T00:27:45;9.00;99.90
15926;DHT22;8062;53.882;10.642;2022-08-07T00:28:46;9.00;99.90
15926;DHT22;8062;53.882;10.642;2022-08-07T00:29:48;9.00;99.90
15926;DHT22;8062;53.882;10.642;2022-08-07T00:30:49;9.00;99.90
15926;DHT22;8062;53.882;10.642;2022-08-07T00:31:50;9.00;99.90
15926;DHT22;8062;53.882;10.642;2022-08-07T00:32:52;9.00;99.90
15926;DHT22;8062;53.882;10.642;2022-08-07T00:33:53;9.00;99.90
15926;DHT22;8062;53.882;10.642;2022-08-07T00:34:54;9.00;99.90
15926;DHT22;8062;53.882;10.642;2022-08-07T00:35:55;9.00;99.90
15926;DHT22;8062;53.882;10.642;2022-08-07T00:36:56;9.00;99.90
15926;DHT22;8062;53.882;10.642;2022-08-07T00:37:58;9.00;99.90
15926;DHT22;8062;53.882;10.642;2022-08-07T00:38:59;9.00;99.90
15926;DHT22;8062;53.882;10.642;2022-08-07T00:40:00;9.00;99.90
15926;DHT22;8062;53.882;10.642;2022-08-07T00:41:03;9.00;99.90
15926;DHT22;8062;53.882;10.642;2022-08-07T00:42:04;9.00;99.90
15926;DHT22;8062;53.882;10.642;2022-08-07T00:43:10;9.00;99.90
15926;DHT22;8062;53.882;10.642;2022-08-07T00:44:11;9.00;99.90
15926;DHT22;8062;53.882;10.642;2022-08-07T00:45:12;9.00;99.90
15926;DHT22;8062;53.882;10.642;2022-08-07T00:46:13;9.00;99.90
15926;DHT22;8062;53.882;10.642;2022-08-07T00:47:14;8.90;99.90
15926;DHT22;8062;53.882;10.642;2022-08-07T00:48:15;8.90;99.90
15926;DHT22;8062;53.882;10.642;2022-08-07T00:49:17;8.90;99.90
15926;DHT22;8062;53.882;10.642;2022-08-07T00:50:18;8.90;99.90
15926;DHT22;8062;53.882;10.642;2022-08-07T00:51:19;8.90;99.90
15926;DHT22;8062;53.882;10.642;2022-08-07T00:52:20;8.90;99.90
15926;DHT22;8062;53.882;10.642;2022-08-07T00:53:21;8.90;99.90
15926;DHT22;8062;53.882;10.642;2022-08-07T00:54:23;8.80;99.90
15926;DHT22;8062;53.882;10.642;2022-08-07T00:55:24;8.80;99.90
15926;DHT22;8062;53.882;10.642;2022-08-07T00:56:26;8.80;99.90
15926;DHT22;8062;53.882;10.642;2022-08-07T00:57:28;8.80;99.90
15926;DHT22;8062;53.882;10.642;2022-08-07T00:58:30;8.80;99.90
15926;DHT22;8062;53.882;10.642;2022-08-07T00:59:32;8.80;99.90
15926;DHT22;8062;53.882;10.642;2022-08-07T01:00:34;8.70;99.90
15926;DHT22;8062;53.882;10.642;2022-08-07T01:01:35;8.70;99.90
15926;DHT22;8062;53.882;10.642;2022-08-07T01:02:36;8.70;99.90
15926;DHT22;8062;53.882;10.642;2022-08-07T01:03:37;8.70;99.90
15926;DHT22;8062;53.882;10.642;2022-08-07T01:04:38;8.70;99.90
15926;DHT22;8062;53.882;10.642;2022-08-07T01:05:41;8.70;99.90
15926;DHT22;8062;53.882;10.642;2022-08-07T01:06:43;8.70;99.90
15926;DHT22;8062;53.882;10.642;2022-08-07T01:07:45;8.70;99.90
15926;DHT22;8062;53.882;10.642;2022-08-07T01:08:46;8.70;99.90
15926;DHT22;8062;53.882;10.642;2022-08-07T01:09:47;8.60;99.90
15926;DHT22;8062;53.882;10.642;2022-08-07T01:10:48;8.60;99.90
15926;DHT22;8062;53.882;10.642;2022-08-07T01:11:50;8.60;99.90
15926;DHT22;8062;53.882;10.642;2022-08-07T01:12:52;8.60;99.90
15926;DHT22;8062;53.882;10.642;2022-08-07T01:13:54;8.60;99.90
15926;DHT22;8062;53.882;10.642;2022-08-07T01:14:56;8.60;99.90
15926;DHT22;8062;53.882;10.642;2022-08-07T01:15:58;8.60;99.90
15926;DHT22;8062;53.882;10.642;2022-08-07T01:17:00;8.60;99.90
15926;DHT22;8062;53.882;10.642;2022-08-07T01:18:04;8.60;99.90
15926;DHT22;8062;53.882;10.642;2022-08-07T01:19:06;8.60;99.90
15926;DHT22;8062;53.882;10.642;2022-08-07T01:20:10;8.60;99.90
15926;DHT22;8062;53.882;10.642;2022-08-07T01:21:13;8.60;99.90
15926;DHT22;8062;53.882;10.642;2022-08-07T01:22:15;8.60;99.90
15926;DHT22;8062;53.882;10.642;2022-08-07T01:23:17;8.60;99.90
15926;DHT22;8062;53.882;10.642;2022-08-07T01:24:19;8.60;99.90
15926;DHT22;8062;53.882;10.642;2022-08-07T01:25:21;8.60;99.90
15926;DHT22;8062;53.882;10.642;2022-08-07T01:26:22;8.60;99.90
15926;DHT22;8062;53.882;10.642;2022-08-07T01:27:24;8.60;99.90
15926;DHT22;8062;53.882;10.642;2022-08-07T01:28:25;8.50;99.90
15926;DHT22;8062;53.882;10.642;2022-08-07T01:29:29;8.50;99.90
15926;DHT22;8062;53.882;10.642;2022-08-07T01:30:31;8.50;99.90
15926;DHT22;8062;53.882;10.642;2022-08-07T01:31:33;8.50;99.90
15926;DHT22;8062;53.882;10.642;2022-08-07T01:32:35;8.50;99.90
15926;DHT22;8062;53.882;10.642;2022-08-07T01:33:37;8.50;99.90
15926;DHT22;8062;53.882;10.642;2022-08-07T01:34:38;8.50;99.90
15926;DHT22;8062;53.882;10.642;2022-08-07T01:35:44;8.50;99.90
15926;DHT22;8062;53.882;10.642;2022-08-07T01:36:47;8.50;99.90
15926;DHT22;8062;53.882;10.642;2022-08-07T01:37:53;8.50;99.90
15926;DHT22;8062;53.882;10.642;2022-08-07T01:38:55;8.50;99.90
15926;DHT22;8062;53.882;10.642;2022-08-07T01:39:58;8.50;99.90
15926;DHT22;8062;53.882;10.642;2022-08-07T01:41:05;8.50;99.90
15926;DHT22;8062;53.882;10.642;2022-08-07T01:42:07;8.50;99.90
15926;DHT22;8062;53.882;10.642;2022-08-07T01:43:10;8.40;99.90
15926;DHT22;8062;53.882;10.642;2022-08-07T01:44:12;8.40;99.90
15926;DHT22;8062;53.882;10.642;2022-08-07T01:45:13;8.40;99.90
15926;DHT22;8062;53.882;10.642;2022-08-07T01:46:16;8.40;99.90
15926;DHT22;8062;53.882;10.642;2022-08-07T01:47:19;8.40;99.90
15926;DHT22;8062;53.882;10.642;2022-08-07T01:48:20;8.40;99.90
15926;DHT22;8062;53.882;10.642;2022-08-07T01:49:22;8.30;99.90
15926;DHT22;8062;53.882;10.642;2022-08-07T01:50:24;8.30;99.90
15926;DHT22;8062;53.882;10.642;2022-08-07T01:51:25;8.30;99.90
15926;DHT22;8062;53.882;10.642;2022-08-07T01:52:30;8.30;99.90
15926;DHT22;8062;53.882;10.642;2022-08-07T01:53:33;8.30;99.90
15926;DHT22;8062;53.882;10.642;2022-08-07T01:54:39;8.30;99.90
15926;DHT22;8062;53.882;10.642;2022-08-07T01:55:49;8.40;99.90
15926;DHT22;8062;53.882;10.642;2022-08-07T01:56:55;8.40;99.90
15926;DHT22;8062;53.882;10.642;2022-08-07T01:57:59;8.40;99.90
15926;DHT22;8062;53.882;10.642;2022-08-07T01:59:26;8.40;99.90
15926;DHT22;8062;53.882;10.642;2022-08-07T02:00:30;8.40;99.90
15926;DHT22;8062;53.882;10.642;2022-08-07T02:01:35;8.30;99.90
15926;DHT22;8062;53.882;10.642;2022-08-07T02:02:51;8.30;99.90
15926;DHT22;8062;53.882;10.642;2022-08-07T02:04:11;8.30;99.90
15926;DHT22;8062;53.882;10.642;2022-08-07T02:05:31;8.30;99.90
15926;DHT22;8062;53.882;10.642;2022-08-07T02:06:34;8.20;99.90
15926;DHT22;8062;53.882;10.642;2022-08-07T02:07:48;8.10;99.90
15926;DHT22;8062;53.882;10.642;2022-08-07T02:08:51;8.10;99.90
15926;DHT22;8062;53.882;10.642;2022-08-07T02:09:54;8.10;99.90
15926;DHT22;8062;53.882;10.642;2022-08-07T02:10:57;8.10;99.90
15926;DHT22;8062;53.882;10.642;2022-08-07T02:12:02;8.00;99.90
15926;DHT22;8062;53.882;10.642;2022-08-07T02:13:21;8.00;99.90
15926;DHT22;8062;53.882;10.642;2022-08-07T02:14:27;8.00;99.90
15926;DHT22;8062;53.882;10.642;2022-08-07T02:15:30;8.00;99.90
15926;DHT22;8062;53.882;10.642;2022-08-07T02:16:31;8.00;99.90
15926;DHT22;8062;53.882;10.642;2022-08-07T02:17:34;8.00;99.90
15926;DHT22;8062;53.882;10.642;2022-08-07T02:18:36;8.00;99.90
15926;DHT22;8062;53.882;10.642;2022-08-07T02:19:41;8.00;99.90
15926;DHT22;8062;53.882;10.642;2022-08-07T02:20:44;8.00;99.90
15926;DHT22;8062;53.882;10.642;2022-08-07T02:21:46;8.00;99.90
15926;DHT22;8062;53.882;10.642;2022-08-07T02:22:49;8.00;99.90
15926;DHT22;8062;53.882;10.642;2022-08-07T02:23:50;8.00;99.90
15926;DHT22;8062;53.882;10.642;2022-08-07T02:24:53;8.00;99.90
15926;DHT22;8062;53.882;10.642;2022-08-07T02:25:56;8.00;99.90
15926;DHT22;8062;53.882;10.642;2022-08-07T02:27:00;8.00;99.90
15926;DHT22;8062;53.882;10.642;2022-08-07T02:28:03;8.00;99.90
15926;DHT22;8062;53.882;10.642;2022-08-07T02:29:07;8.00;99.90
15926;DHT22;8062;53.882;10.642;2022-08-07T02:30:09;8.00;99.90
15926;DHT22;8062;53.882;10.642;2022-08-07T02:31:12;7.90;99.90
15926;DHT22;8062;53.882;10.642;2022-08-07T02:32:15;7.90;99.90
15926;DHT22;8062;53.882;10.642;2022-08-07T02:33:17;7.90;99.90
15926;DHT22;8062;53.882;10.642;2022-08-07T02:34:19;7.90;99.90
15926;DHT22;8062;53.882;10.642;2022-08-07T02:35:26;7.90;99.90
15926;DHT22;8062;53.882;10.642;2022-08-07T02:36:31;7.90;99.90
15926;DHT22;8062;53.882;10.642;2022-08-07T02:37:39;7.90;99.90
15926;DHT22;8062;53.882;10.642;2022-08-07T02:38:43;7.90;99.90
15926;DHT22;8062;53.882;10.642;2022-08-07T02:39:46;7.90;99.90
15926;DHT22;8062;53.882;10.642;2022-08-07T02:40:52;7.80;99.90
15926;DHT22;8062;53.882;10.642;2022-08-07T02:41:53;7.80;99.90
15926;DHT22;8062;53.882;10.642;2022-08-07T02:42:56;7.80;99.90
15926;DHT22;8062;53.882;10.642;2022-08-07T02:43:59;7.80;99.90
15926;DHT22;8062;53.882;10.642;2022-08-07T02:45:04;7.80;99.90
15926;DHT22;8062;53.882;10.642;2022-08-07T02:46:07;7.80;99.90
15926;DHT22;8062;53.882;10.642;2022-08-07T02:47:11;7.80;99.90
15926;DHT22;8062;53.882;10.642;2022-08-07T02:48:12;7.80;99.90
15926;DHT22;8062;53.882;10.642;2022-08-07T02:49:13;7.70;99.90
15926;DHT22;8062;53.882;10.642;2022-08-07T02:50:15;7.70;99.90
15926;DHT22;8062;53.882;10.642;2022-08-07T02:51:20;7.70;99.90
15926;DHT22;8062;53.882;10.642;2022-08-07T02:52:33;7.70;99.90
15926;DHT22;8062;53.882;10.642;2022-08-07T02:53:38;7.70;99.90
15926;DHT22;8062;53.882;10.642;2022-08-07T02:54:43;7.70;99.90
15926;DHT22;8062;53.882;10.642;2022-08-07T02:55:46;7.70;99.90
15926;DHT22;8062;53.882;10.642;2022-08-07T02:56:48;7.70;99.90
15926;DHT22;8062;53.882;10.642;2022-08-07T02:57:51;7.70;99.90
15926;DHT22;8062;53.882;10.642;2022-08-07T02:58:53;7.70;99.90
15926;DHT22;8062;53.882;10.642;2022-08-07T02:59:56;7.70;99.90
15926;DHT22;8062;53.882;10.642;2022-08-07T03:00:58;7.70;99.90
15926;DHT22;8062;53.882;10.642;2022-08-07T03:02:00;7.70;99.90
15926;DHT22;8062;53.882;10.642;2022-08-07T03:03:06;7.70;99.90
15926;DHT22;8062;53.882;10.642;2022-08-07T03:04:12;7.70;99.90
15926;DHT22;8062;53.882;10.642;2022-08-07T03:05:14;7.70;99.90
15926;DHT22;8062;53.882;10.642;2022-08-07T03:06:17;7.60;99.90
15926;DHT22;8062;53.882;10.642;2022-08-07T03:07:19;7.60;99.90
15926;DHT22;8062;53.882;10.642;2022-08-07T03:08:22;7.60;99.90
15926;DHT22;8062;53.882;10.642;2022-08-07T03:09:26;7.60;99.90
15926;DHT22;8062;53.882;10.642;2022-08-07T03:10:28;7.60;99.90
15926;DHT22;8062;53.882;10.642;2022-08-07T03:11:30;7.60;99.90
15926;DHT22;8062;53.882;10.642;2022-08-07T03:12:34;7.60;99.90
15926;DHT22;8062;53.882;10.642;2022-08-07T03:13:41;7.60;99.90
15926;DHT22;8062;53.882;10.642;2022-08-07T03:14:44;7.50;99.90
15926;DHT22;8062;53.882;10.642;2022-08-07T03:15:47;7.50;99.90
15926;DHT22;8062;53.882;10.642;2022-08-07T03:16:48;7.50;99.90
15926;DHT22;8062;53.882;10.642;2022-08-07T03:17:50;7.50;99.90
15926;DHT22;8062;53.882;10.642;2022-08-07T03:18:52;7.50;99.90
15926;DHT22;8062;53.882;10.642;2022-08-07T03:19:54;7.50;99.90
15926;DHT22;8062;53.882;10.642;2022-08-07T03:20:56;7.50;99.90
15926;DHT22;8062;53.882;10.642;2022-08-07T03:21:57;7.50;99.90
15926;DHT22;8062;53.882;10.642;2022-08-07T03:22:59;7.50;99.90
15926;DHT22;8062;53.882;10.642;2022-08-07T03:24:01;7.50;99.90
15926;DHT22;8062;53.882;10.642;2022-08-07T03:25:03;7.50;99.90
15926;DHT22;8062;53.882;10.642;2022-08-07T03:26:13;7.50;99.90
15926;DHT22;8062;53.882;10.642;2022-08-07T03:27:19;7.50;99.90
15926;DHT22;8062;53.882;10.642;2022-08-07T03:28:22;7.50;99.90
15926;DHT22;8062;53.882;10.642;2022-08-07T03:29:26;7.50;99.90
15926;DHT22;8062;53.882;10.642;2022-08-07T03:30:28;7.50;99.90
15926;DHT22;8062;53.882;10.642;2022-08-07T03:31:31;7.50;99.90
15926;DHT22;8062;53.882;10.642;2022-08-07T03:32:36;7.50;99.90
15926;DHT22;8062;53.882;10.642;2022-08-07T03:33:39;7.50;99.90
15926;DHT22;8062;53.882;10.642;2022-08-07T03:34:43;7.50;99.90
15926;DHT22;8062;53.882;10.642;2022-08-07T03:35:45;7.50;99.90
15926;DHT22;8062;53.882;10.642;2022-08-07T03:36:47;7.40;99.90
15926;DHT22;8062;53.882;10.642;2022-08-07T03:38:06;7.50;99.90
15926;DHT22;8062;53.882;10.642;2022-08-07T03:39:11;7.40;99.90
15926;DHT22;8062;53.882;10.642;2022-08-07T03:40:14;7.40;99.90
15926;DHT22;8062;53.882;10.642;2022-08-07T03:41:15;7.40;99.90
15926;DHT22;8062;53.882;10.642;2022-08-07T03:42:17;7.40;99.90
15926;DHT22;8062;53.882;10.642;2022-08-07T03:43:20;7.40;99.90
15926;DHT22;8062;53.882;10.642;2022-08-07T03:44:26;7.40;99.90
15926;DHT22;8062;53.882;10.642;2022-08-07T03:45:28;7.40;99.90
15926;DHT22;8062;53.882;10.642;2022-08-07T03:46:32;7.40;99.90
15926;DHT22;8062;53.882;10.642;2022-08-07T03:47:35;7.40;99.90
15926;DHT22;8062;53.882;10.642;2022-08-07T03:48:36;7.40;99.90
15926;DHT22;8062;53.882;10.642;2022-08-07T03:49:39;7.40;99.90
15926;DHT22;8062;53.882;10.642;2022-08-07T03:50:41;7.40;99.90
15926;DHT22;8062;53.882;10.642;2022-08-07T03:51:42;7.40;99.90
15926;DHT22;8062;53.882;10.642;2022-08-07T03:52:44;7.40;99.90
15926;DHT22;8062;53.882;10.642;2022-08-07T03:53:47;7.40;99.90
15926;DHT22;8062;53.882;10.642;2022-08-07T03:54:49;7.40;99.90
15926;DHT22;8062;53.882;10.642;2022-08-07T03:55:50;7.40;99.90
15926;DHT22;8062;53.882;10.642;2022-08-07T03:56:53;7.40;99.90
15926;DHT22;8062;53.882;10.642;2022-08-07T03:57:56;7.40;99.90
15926;DHT22;8062;53.882;10.642;2022-08-07T03:59:00;7.40;99.90
15926;DHT22;8062;53.882;10.642;2022-08-07T04:00:03;7.40;99.90
15926;DHT22;8062;53.882;10.642;2022-08-07T04:01:08;7.40;99.90
15926;DHT22;8062;53.882;10.642;2022-08-07T04:02:11;7.40;99.90
15926;DHT22;8062;53.882;10.642;2022-08-07T04:03:12;7.40;99.90
15926;DHT22;8062;53.882;10.642;2022-08-07T04:04:15;7.40;99.90
15926;DHT22;8062;53.882;10.642;2022-08-07T04:05:20;7.40;99.90
15926;DHT22;8062;53.882;10.642;2022-08-07T04:06:22;7.40;99.90
15926;DHT22;8062;53.882;10.642;2022-08-07T04:07:23;7.40;99.90
15926;DHT22;8062;53.882;10.642;2022-08-07T04:08:25;7.40;99.90
15926;DHT22;8062;53.882;10.642;2022-08-07T04:09:28;7.40;99.90
15926;DHT22;8062;53.882;10.642;2022-08-07T04:10:32;7.50;99.90
15926;DHT22;8062;53.882;10.642;2022-08-07T04:11:33;7.50;99.90
15926;DHT22;8062;53.882;10.642;2022-08-07T04:12:35;7.50;99.90
15926;DHT22;8062;53.882;10.642;2022-08-07T04:13:36;7.50;99.90
15926;DHT22;8062;53.882;10.642;2022-08-07T04:14:39;7.50;99.90
15926;DHT22;8062;53.882;10.642;2022-08-07T04:15:42;7.50;99.90
15926;DHT22;8062;53.882;10.642;2022-08-07T04:16:43;7.50;99.90
15926;DHT22;8062;53.882;10.642;2022-08-07T04:17:45;7.50;99.90
15926;DHT22;8062;53.882;10.642;2022-08-07T04:18:47;7.50;99.90
15926;DHT22;8062;53.882;10.642;2022-08-07T04:19:49;7.50;99.90
15926;DHT22;8062;53.882;10.642;2022-08-07T04:20:50;7.50;99.90
15926;DHT22;8062;53.882;10.642;2022-08-07T04:21:52;7.50;99.90
15926;DHT22;8062;53.882;10.642;2022-08-07T04:22:54;7.50;99.90
15926;DHT22;8062;53.882;10.642;2022-08-07T04:23:59;7.50;99.90
15926;DHT22;8062;53.882;10.642;2022-08-07T04:25:01;7.50;99.90
15926;DHT22;8062;53.882;10.642;2022-08-07T04:26:05;7.60;99.90
15926;DHT22;8062;53.882;10.642;2022-08-07T04:27:07;7.60;99.90
15926;DHT22;8062;53.882;10.642;2022-08-07T04:28:10;7.60;99.90
15926;DHT22;8062;53.882;10.642;2022-08-07T04:29:12;7.60;99.90
15926;DHT22;8062;53.882;10.642;2022-08-07T04:30:13;7.60;99.90
15926;DHT22;8062;53.882;10.642;2022-08-07T04:31:28;7.60;99.90
15926;DHT22;8062;53.882;10.642;2022-08-07T04:32:30;7.60;99.90
15926;DHT22;8062;53.882;10.642;2022-08-07T04:33:33;7.60;99.90
15926;DHT22;8062;53.882;10.642;2022-08-07T04:34:35;7.60;99.90
15926;DHT22;8062;53.882;10.642;2022-08-07T04:35:37;7.70;99.90
15926;DHT22;8062;53.882;10.642;2022-08-07T04:36:42;7.70;99.90
15926;DHT22;8062;53.882;10.642;2022-08-07T04:37:44;7.70;99.90
15926;DHT22;8062;53.882;10.642;2022-08-07T04:38:45;7.70;99.90
15926;DHT22;8062;53.882;10.642;2022-08-07T04:39:47;7.70;99.90
15926;DHT22;8062;53.882;10.642;2022-08-07T04:40:49;7.80;99.90
15926;DHT22;8062;53.882;10.642;2022-08-07T04:41:50;7.80;99.90
15926;DHT22;8062;53.882;10.642;2022-08-07T04:42:52;7.80;99.90
15926;DHT22;8062;53.882;10.642;2022-08-07T04:43:54;7.80;99.90
15926;DHT22;8062;53.882;10.642;2022-08-07T04:44:57;7.90;99.90
15926;DHT22;8062;53.882;10.642;2022-08-07T04:46:13;7.90;99.90
15926;DHT22;8062;53.882;10.642;2022-08-07T04:47:36;7.90;99.90
15926;DHT22;8062;53.882;10.642;2022-08-07T04:49:04;7.90;99.90
15926;DHT22;8062;53.882;10.642;2022-08-07T04:50:17;8.00;99.90
15926;DHT22;8062;53.882;10.642;2022-08-07T04:51:55;8.00;99.90
15926;DHT22;8062;53.882;10.642;2022-08-07T04:53:06;8.00;99.90
15926;DHT22;8062;53.882;10.642;2022-08-07T04:54:29;8.00;99.90
15926;DHT22;8062;53.882;10.642;2022-08-07T04:55:49;8.10;99.90
15926;DHT22;8062;53.882;10.642;2022-08-07T04:58:30;8.10;99.90
15926;DHT22;8062;53.882;10.642;2022-08-07T05:02:29;8.30;99.90
15926;DHT22;8062;53.882;10.642;2022-08-07T05:04:59;8.40;99.90
15926;DHT22;8062;53.882;10.642;2022-08-07T05:06:17;8.50;99.90
15926;DHT22;8062;53.882;10.642;2022-08-07T05:07:24;8.50;99.90
15926;DHT22;8062;53.882;10.642;2022-08-07T05:10:20;8.60;99.90
15926;DHT22;8062;53.882;10.642;2022-08-07T05:11:30;8.70;99.90
15926;DHT22;8062;53.882;10.642;2022-08-07T05:12:46;8.70;99.90
15926;DHT22;8062;53.882;10.642;2022-08-07T05:13:54;8.80;99.90
15926;DHT22;8062;53.882;10.642;2022-08-07T05:15:01;8.90;99.90
15926;DHT22;8062;53.882;10.642;2022-08-07T05:16:17;9.00;99.90
15926;DHT22;8062;53.882;10.642;2022-08-07T05:17:20;9.10;99.90
15926;DHT22;8062;53.882;10.642;2022-08-07T05:18:33;9.20;99.90
15926;DHT22;8062;53.882;10.642;2022-08-07T05:19:46;9.20;99.90
15926;DHT22;8062;53.882;10.642;2022-08-07T05:20:52;9.30;99.90
15926;DHT22;8062;53.882;10.642;2022-08-07T05:21:58;9.40;99.90
15926;DHT22;8062;53.882;10.642;2022-08-07T05:23:09;9.40;99.90
15926;DHT22;8062;53.882;10.642;2022-08-07T05:24:12;9.50;99.90
15926;DHT22;8062;53.882;10.642;2022-08-07T05:25:18;9.60;99.90
15926;DHT22;8062;53.882;10.642;2022-08-07T05:26:22;9.60;99.90
15926;DHT22;8062;53.882;10.642;2022-08-07T05:27:26;9.70;99.90
15926;DHT22;8062;53.882;10.642;2022-08-07T05:28:31;9.80;99.90
15926;DHT22;8062;53.882;10.642;2022-08-07T05:29:33;10.00;99.90
15926;DHT22;8062;53.882;10.642;2022-08-07T05:30:37;10.10;99.90
15926;DHT22;8062;53.882;10.642;2022-08-07T05:31:42;10.20;99.90
15926;DHT22;8062;53.882;10.642;2022-08-07T05:32:47;10.20;99.90
15926;DHT22;8062;53.882;10.642;2022-08-07T05:33:51;10.30;99.90
15926;DHT22;8062;53.882;10.642;2022-08-07T05:34:53;10.40;99.90
15926;DHT22;8062;53.882;10.642;2022-08-07T05:35:55;10.50;99.90
15926;DHT22;8062;53.882;10.642;2022-08-07T05:36:58;10.50;99.90
15926;DHT22;8062;53.882;10.642;2022-08-07T05:38:19;10.60;99.90
15926;DHT22;8062;53.882;10.642;2022-08-07T05:39:22;10.70;99.90
15926;DHT22;8062;53.882;10.642;2022-08-07T05:40:25;10.80;99.90
15926;DHT22;8062;53.882;10.642;2022-08-07T05:41:26;10.90;99.90
15926;DHT22;8062;53.882;10.642;2022-08-07T05:42:28;11.00;99.90
15926;DHT22;8062;53.882;10.642;2022-08-07T05:43:30;11.00;99.90
15926;DHT22;8062;53.882;10.642;2022-08-07T05:44:34;11.20;99.90
15926;DHT22;8062;53.882;10.642;2022-08-07T05:45:36;11.30;99.90
15926;DHT22;8062;53.882;10.642;2022-08-07T05:46:39;11.40;99.90
15926;DHT22;8062;53.882;10.642;2022-08-07T05:47:41;11.30;99.90
15926;DHT22;8062;53.882;10.642;2022-08-07T05:48:43;11.40;99.90
15926;DHT22;8062;53.882;10.642;2022-08-07T05:49:48;11.60;99.90
15926;DHT22;8062;53.882;10.642;2022-08-07T05:50:50;11.70;99.90
15926;DHT22;8062;53.882;10.642;2022-08-07T05:51:52;11.80;99.90
15926;DHT22;8062;53.882;10.642;2022-08-07T05:52:56;11.90;99.90
15926;DHT22;8062;53.882;10.642;2022-08-07T05:53:57;12.00;99.90
15926;DHT22;8062;53.882;10.642;2022-08-07T05:55:00;12.10;99.90
15926;DHT22;8062;53.882;10.642;2022-08-07T05:56:01;12.10;99.90
15926;DHT22;8062;53.882;10.642;2022-08-07T05:57:05;12.20;99.90
15926;DHT22;8062;53.882;10.642;2022-08-07T05:58:09;12.30;99.90
15926;DHT22;8062;53.882;10.642;2022-08-07T05:59:17;12.30;99.90
15926;DHT22;8062;53.882;10.642;2022-08-07T06:00:22;12.40;99.90
15926;DHT22;8062;53.882;10.642;2022-08-07T06:01:32;12.50;99.90
15926;DHT22;8062;53.882;10.642;2022-08-07T06:02:35;12.60;99.90
15926;DHT22;8062;53.882;10.642;2022-08-07T06:03:38;12.60;99.90
15926;DHT22;8062;53.882;10.642;2022-08-07T06:04:53;12.70;99.90
15926;DHT22;8062;53.882;10.642;2022-08-07T06:05:56;12.80;99.90
15926;DHT22;8062;53.882;10.642;2022-08-07T06:06:58;12.90;99.90
15926;DHT22;8062;53.882;10.642;2022-08-07T06:08:04;12.90;99.90
15926;DHT22;8062;53.882;10.642;2022-08-07T06:09:06;13.00;99.90
15926;DHT22;8062;53.882;10.642;2022-08-07T06:10:11;13.10;99.90
15926;DHT22;8062;53.882;10.642;2022-08-07T06:11:13;13.10;99.90
15926;DHT22;8062;53.882;10.642;2022-08-07T06:12:14;13.20;99.90
15926;DHT22;8062;53.882;10.642;2022-08-07T06:13:16;13.30;99.90
15926;DHT22;8062;53.882;10.642;2022-08-07T06:14:17;13.40;99.90
15926;DHT22;8062;53.882;10.642;2022-08-07T06:15:21;13.50;99.90
15926;DHT22;8062;53.882;10.642;2022-08-07T06:16:26;13.60;99.90
15926;DHT22;8062;53.882;10.642;2022-08-07T06:17:28;13.70;99.90
15926;DHT22;8062;53.882;10.642;2022-08-07T06:18:31;13.80;99.90
15926;DHT22;8062;53.882;10.642;2022-08-07T06:19:33;13.90;99.90
15926;DHT22;8062;53.882;10.642;2022-08-07T06:20:35;14.00;99.90
15926;DHT22;8062;53.882;10.642;2022-08-07T06:21:38;14.10;99.90
15926;DHT22;8062;53.882;10.642;2022-08-07T06:22:40;14.10;99.90
15926;DHT22;8062;53.882;10.642;2022-08-07T06:24:05;14.20;99.90
15926;DHT22;8062;53.882;10.642;2022-08-07T06:25:06;14.30;99.90
15926;DHT22;8062;53.882;10.642;2022-08-07T06:26:10;14.30;99.90
15926;DHT22;8062;53.882;10.642;2022-08-07T06:27:20;14.40;99.90
15926;DHT22;8062;53.882;10.642;2022-08-07T06:28:21;14.40;99.90
15926;DHT22;8062;53.882;10.642;2022-08-07T06:29:29;14.50;99.90
15926;DHT22;8062;53.882;10.642;2022-08-07T06:30:30;14.60;99.90
15926;DHT22;8062;53.882;10.642;2022-08-07T06:31:31;14.70;99.90
15926;DHT22;8062;53.882;10.642;2022-08-07T06:32:32;14.80;99.90
15926;DHT22;8062;53.882;10.642;2022-08-07T06:33:33;14.80;99.90
15926;DHT22;8062;53.882;10.642;2022-08-07T06:34:35;14.90;99.90
15926;DHT22;8062;53.882;10.642;2022-08-07T06:35:36;15.00;99.90
15926;DHT22;8062;53.882;10.642;2022-08-07T06:36:37;15.10;99.90
15926;DHT22;8062;53.882;10.642;2022-08-07T06:37:40;15.10;99.90
15926;DHT22;8062;53.882;10.642;2022-08-07T06:38:43;15.20;99.90
15926;DHT22;8062;53.882;10.642;2022-08-07T06:39:44;15.30;99.90
15926;DHT22;8062;53.882;10.642;2022-08-07T06:40:50;15.40;99.90
15926;DHT22;8062;53.882;10.642;2022-08-07T06:42:01;15.40;99.90
15926;DHT22;8062;53.882;10.642;2022-08-07T06:43:23;15.50;99.90
15926;DHT22;8062;53.882;10.642;2022-08-07T06:44:39;15.50;99.90
15926;DHT22;8062;53.882;10.642;2022-08-07T06:45:41;15.60;99.90
15926;DHT22;8062;53.882;10.642;2022-08-07T06:46:44;15.70;99.90
15926;DHT22;8062;53.882;10.642;2022-08-07T06:47:47;15.80;99.90
15926;DHT22;8062;53.882;10.642;2022-08-07T06:48:50;15.90;99.90
15926;DHT22;8062;53.882;10.642;2022-08-07T06:49:55;16.00;99.90
15926;DHT22;8062;53.882;10.642;2022-08-07T06:50:59;16.10;99.90
15926;DHT22;8062;53.882;10.642;2022-08-07T06:52:05;16.20;99.90
15926;DHT22;8062;53.882;10.642;2022-08-07T06:53:08;16.20;99.90
15926;DHT22;8062;53.882;10.642;2022-08-07T06:54:11;16.30;99.90
15926;DHT22;8062;53.882;10.642;2022-08-07T06:55:25;16.30;99.90
15926;DHT22;8062;53.882;10.642;2022-08-07T06:56:28;16.40;99.90